Time;durP1;ratioP1;P1;durP2;ratioP2;P2;SDS_P1;SDS_P2;PMS_P1;PMS_P2;Temp;Humidity;BMP_temperature;BMP_pressure;BME280_temperature;BME280_humidity;BME280_pressure;Samples;Min_cycle;Max_cycle;Signal;HPM_P1;HPM_P2
2022/02/08 00:00:12;;;;;;;7.68;1.85;;;7.00;90.20;;;;;;5017408;28;20053;-81
2022/02/08 00:02:47;;;;;;;7.88;1.48;;;7.10;90.20;;;;;;4984989;28;20084;-81
2022/02/08 00:05:16;;;;;;;6.95;2.17;;;7.10;90.30;;;;;;4970431;28;20052;-82
2022/02/08 00:07:47;;;;;;;5.80;1.65;;;7.10;90.30;;;;;;5000933;28;20045;-80
2022/02/08 00:10:14;;;;;;;9.40;2.88;;;7.10;90.30;;;;;;5034927;28;20045;-81
2022/02/08 00:12:41;;;;;;;11.15;2.72;;;7.10;90.40;;;;;;5000791;28;20038;-81
2022/02/08 00:15:09;;;;;;;13.27;3.13;;;7.10;90.50;;;;;;4984660;28;20083;-81
2022/02/08 00:17:36;;;;;;;13.55;3.35;;;7.10;90.60;;;;;;5000722;28;20049;-81
2022/02/08 00:20:09;;;;;;;9.05;2.65;;;7.10;90.60;;;;;;5017269;28;20057;-81
2022/02/08 00:22:36;;;;;;;7.15;2.50;;;7.10;90.70;;;;;;5000971;28;20049;-80
2022/02/08 00:25:05;;;;;;;14.55;3.30;;;7.00;90.80;;;;;;5016822;28;20042;-81
2022/02/08 00:27:33;;;;;;;6.28;2.67;;;6.90;91.20;;;;;;5016610;28;20034;-81
2022/02/08 00:30:02;;;;;;;7.72;2.15;;;6.90;91.20;;;;;;5017190;28;20045;-81
2022/02/08 00:32:29;;;;;;;8.68;2.28;;;6.80;91.20;;;;;;5016733;28;20041;-81
2022/02/08 00:34:56;;;;;;;9.23;3.05;;;6.80;91.40;;;;;;4984421;28;20049;-80
2022/02/08 00:37:24;;;;;;;13.40;3.60;;;6.80;91.50;;;;;;4984958;28;20504;-80
2022/02/08 00:39:51;;;;;;;10.05;3.15;;;6.80;91.70;;;;;;5033340;28;20049;-80
2022/02/08 00:42:24;;;;;;;12.30;3.88;;;6.80;91.80;;;;;;5000714;28;20056;-80
2022/02/08 00:45:00;;;;;;;9.52;3.15;;;6.80;92.00;;;;;;5000555;28;20029;-80
2022/02/08 00:47:40;;;;;;;10.55;3.15;;;6.70;92.00;;;;;;5015475;28;20745;-80
2022/02/08 00:50:10;;;;;;;8.65;3.20;;;6.70;92.00;;;;;;4972077;28;20077;-79
2022/02/08 00:52:39;;;;;;;12.90;4.43;;;6.70;92.10;;;;;;5016321;28;20069;-81
2022/02/08 00:55:09;;;;;;;8.88;3.00;;;6.70;92.20;;;;;;5016335;28;20491;-80
2022/02/08 00:57:39;;;;;;;6.68;2.78;;;6.70;92.20;;;;;;5016428;28;20049;-81
2022/02/08 01:00:09;;;;;;;11.10;2.47;;;6.80;92.30;;;;;;4984242;28;20137;-80
2022/02/08 01:02:36;;;;;;;8.88;3.40;;;6.80;92.30;;;;;;5000063;28;20064;-81
2022/02/08 01:05:06;;;;;;;6.00;2.63;;;6.80;92.30;;;;;;4983752;28;20152;-81
2022/02/08 01:07:35;;;;;;;8.25;2.53;;;6.80;92.30;;;;;;5000408;28;20046;-81
2022/02/08 01:10:04;;;;;;;7.20;2.80;;;6.90;92.60;;;;;;5000374;28;20585;-81
2022/02/08 01:12:33;;;;;;;6.70;2.58;;;6.90;92.40;;;;;;5000068;28;20050;-81
2022/02/08 01:15:01;;;;;;;7.95;2.83;;;6.90;92.40;;;;;;5032603;28;20041;-81
2022/02/08 01:17:29;;;;;;;7.97;3.03;;;6.90;92.40;;;;;;4984012;28;20513;-80
2022/02/08 01:22:26;;;;;;;6.47;2.85;;;6.80;92.70;;;;;;4983767;28;20049;-80
2022/02/08 01:24:54;;;;;;;6.57;3.28;;;6.80;92.50;;;;;;4983168;28;20042;-80
2022/02/08 01:27:26;;;;;;;11.27;4.22;;;6.80;92.60;;;;;;4999206;28;20046;-81
2022/02/08 01:29:57;;;;;;;7.50;4.13;;;6.80;92.80;;;;;;5000017;28;20172;-80
2022/02/08 01:40:50;;;;;;;5.50;3.00;;;6.80;92.90;;;;;;5001976;28;20145;-80
2022/02/08 01:48:51;;;;;;;10.15;4.75;;;6.90;93.00;;;;;;5001727;28;20493;-81
2022/02/08 01:51:21;;;;;;;7.30;3.72;;;6.90;93.10;;;;;;5001530;28;20148;-80
2022/02/08 01:53:49;;;;;;;6.90;3.60;;;6.90;93.10;;;;;;4983414;28;20695;-81
2022/02/08 01:56:17;;;;;;;9.05;4.25;;;7.00;93.20;;;;;;5015741;28;20052;-80
2022/02/08 01:58:44;;;;;;;10.82;4.82;;;7.00;93.20;;;;;;4998954;28;20053;-81
2022/02/08 02:01:29;;;;;;;14.02;6.93;;;7.00;93.30;;;;;;4988283;28;20052;-81
2022/02/08 02:03:56;;;;;;;18.80;8.18;;;7.00;93.50;;;;;;4982845;28;20080;-81
2022/02/08 02:06:40;;;;;;;10.02;6.03;;;7.00;93.60;;;;;;4973867;28;20493;-81
2022/02/08 02:09:10;;;;;;;10.95;7.10;;;7.10;93.60;;;;;;5000116;28;20049;-81
2022/02/08 02:11:38;;;;;;;17.15;7.38;;;7.10;93.70;;;;;;4983154;28;20052;-81
2022/02/08 02:18:39;;;;;;;17.35;9.57;;;7.10;93.80;;;;;;5032792;28;20064;-88
2022/02/08 02:21:08;;;;;;;15.93;9.15;;;7.20;94.00;;;;;;5016182;28;20053;-88
2022/02/08 02:23:38;;;;;;;19.17;9.68;;;7.20;94.10;;;;;;5019728;28;20049;-88
2022/02/08 02:26:06;;;;;;;15.82;9.27;;;7.20;94.10;;;;;;5017559;28;20677;-82
2022/02/08 02:28:36;;;;;;;17.52;11.32;;;7.20;94.20;;;;;;5000515;28;20049;-81
2022/02/08 02:31:05;;;;;;;19.65;12.93;;;7.20;94.40;;;;;;5018776;28;20496;-87
2022/02/08 02:33:33;;;;;;;18.20;11.10;;;7.30;94.50;;;;;;5035404;28;20037;-87
2022/02/08 02:36:00;;;;;;;20.10;12.30;;;7.30;94.50;;;;;;5019266;28;20106;-87
2022/02/08 02:38:27;;;;;;;19.95;12.43;;;7.30;94.60;;;;;;5002551;28;20052;-86
2022/02/08 02:40:55;;;;;;;23.00;11.68;;;7.30;94.70;;;;;;5002999;28;20059;-86
2022/02/08 02:43:28;;;;;;;24.05;12.55;;;7.40;94.70;;;;;;4987634;28;20048;-86
2022/02/08 02:45:59;;;;;;;17.95;12.05;;;7.40;94.80;;;;;;5034877;28;20049;-85
2022/02/08 02:48:27;;;;;;;19.42;11.52;;;7.40;94.80;;;;;;5034719;28;20048;-85
2022/02/08 02:50:56;;;;;;;18.92;10.65;;;7.40;94.80;;;;;;5018689;28;20821;-85
2022/02/08 02:53:37;;;;;;;18.65;11.85;;;7.40;94.70;;;;;;5020771;28;20064;-86
2022/02/08 02:56:11;;;;;;;21.25;13.57;;;7.50;94.80;;;;;;5019520;28;20050;-86
2022/02/08 02:58:39;;;;;;;23.88;14.95;;;7.50;94.90;;;;;;5018621;28;20053;-86
2022/02/08 03:01:25;;;;;;;26.52;14.02;;;7.50;94.90;;;;;;5002983;28;20139;-86
2022/02/08 03:20:26;;;;;;;24.15;13.75;;;7.70;95.20;;;;;;5008217;28;20065;-84
2022/02/08 03:22:59;;;;;;;20.77;14.05;;;7.70;95.20;;;;;;4991580;28;20049;-85
2022/02/08 03:25:27;;;;;;;25.27;15.35;;;7.70;95.20;;;;;;5037507;28;20152;-84
2022/02/08 03:27:59;;;;;;;29.55;16.85;;;7.70;95.20;;;;;;5023863;28;20040;-85
2022/02/08 03:30:27;;;;;;;31.52;18.65;;;7.80;95.30;;;;;;5028547;28;20048;-84
2022/02/08 03:32:55;;;;;;;27.15;14.75;;;7.80;95.40;;;;;;4990588;28;20065;-80
2022/02/08 03:35:25;;;;;;;31.90;19.45;;;7.80;95.30;;;;;;5007043;28;20057;-81
2022/02/08 03:37:57;;;;;;;37.35;20.20;;;7.80;95.50;;;;;;5037627;28;20051;-80
2022/02/08 03:45:43;;;;;;;31.02;16.30;;;7.90;95.50;;;;;;5036938;28;20071;-80
2022/02/08 03:48:14;;;;;;;30.48;17.27;;;7.90;95.50;;;;;;5021290;28;20048;-85
2022/02/08 03:50:44;;;;;;;30.27;16.92;;;7.90;95.50;;;;;;5020946;28;20067;-85
2022/02/08 03:53:12;;;;;;;28.15;16.60;;;8.00;95.60;;;;;;5020818;28;20068;-85
2022/02/08 03:55:40;;;;;;;27.88;17.05;;;8.00;95.60;;;;;;5020705;28;20158;-85
2022/02/08 03:58:10;;;;;;;30.50;18.10;;;8.10;95.70;;;;;;5005392;28;20151;-85
2022/02/08 04:03:23;;;;;;;31.70;17.20;;;8.10;95.60;;;;;;5024645;28;20045;-85
2022/02/08 04:05:53;;;;;;;32.90;18.08;;;8.10;95.70;;;;;;5006238;28;20132;-85
2022/02/08 04:08:20;;;;;;;30.77;17.73;;;8.10;95.80;;;;;;5005936;28;20499;-85
2022/02/08 04:10:48;;;;;;;29.10;15.90;;;8.20;95.80;;;;;;5021151;28;20049;-85
2022/02/08 04:13:23;;;;;;;31.00;16.02;;;8.20;95.80;;;;;;5021493;28;20049;-85
2022/02/08 04:42:37;;;;;;;29.20;15.57;;;8.40;96.10;;;;;;5054391;28;20093;-81
2022/02/08 04:47:47;;;;;;;24.05;14.55;;;8.50;96.10;;;;;;5037659;28;20406;-86
2022/02/08 04:50:17;;;;;;;27.15;14.85;;;8.50;96.10;;;;;;5038290;28;20049;-85
2022/02/08 04:52:45;;;;;;;31.05;16.70;;;8.50;96.10;;;;;;5059957;28;20041;-83
2022/02/08 04:58:13;;;;;;;29.17;14.48;;;8.50;96.20;;;;;;5029192;28;20102;-81
2022/02/08 05:36:17;;;;;;;27.35;13.48;;;8.60;96.50;;;;;;5025006;28;20059;-86
2022/02/08 05:44:10;;;;;;;25.05;14.18;;;8.60;96.50;;;;;;5031417;28;20593;-85
2022/02/08 05:49:09;;;;;;;21.73;12.73;;;8.60;96.50;;;;;;5053497;28;20111;-86
2022/02/08 05:54:20;;;;;;;20.48;11.73;;;8.60;96.50;;;;;;5038310;28;20098;-87
2022/02/08 05:56:54;;;;;;;23.15;11.68;;;8.60;96.50;;;;;;5036080;28;20052;-86
2022/02/08 05:59:22;;;;;;;20.23;11.15;;;8.60;96.50;;;;;;5035693;28;20053;-86
2022/02/08 06:01:50;;;;;;;18.23;10.48;;;8.60;96.50;;;;;;5035807;28;20154;-87
2022/02/08 06:04:27;;;;;;;20.13;11.52;;;8.60;96.40;;;;;;5020340;28;20052;-86
2022/02/08 06:06:56;;;;;;;19.90;11.73;;;8.60;96.50;;;;;;5035469;28;20523;-86
2022/02/08 06:09:23;;;;;;;21.17;12.82;;;8.60;96.50;;;;;;5019004;28;20060;-86
2022/02/08 06:11:50;;;;;;;20.92;11.63;;;8.60;96.50;;;;;;5018503;28;20041;-86
2022/02/08 06:14:24;;;;;;;23.70;12.73;;;8.60;96.50;;;;;;5018671;28;20045;-87
2022/02/08 06:16:53;;;;;;;21.13;11.90;;;8.60;96.50;;;;;;5003791;28;20068;-86
2022/02/08 06:19:20;;;;;;;19.38;10.27;;;8.60;96.50;;;;;;5018610;28;20053;-87
2022/02/08 06:21:48;;;;;;;20.38;10.75;;;8.60;96.50;;;;;;5034886;28;20144;-86
2022/02/08 06:24:15;;;;;;;20.77;11.85;;;8.60;96.50;;;;;;5018811;28;20048;-87
2022/02/08 06:26:45;;;;;;;22.00;12.20;;;8.60;96.50;;;;;;5034723;28;20049;-87
2022/02/08 06:29:16;;;;;;;22.20;11.50;;;8.60;96.60;;;;;;5002084;28;20140;-86
2022/02/08 06:31:45;;;;;;;17.95;10.50;;;8.60;96.50;;;;;;5019221;28;20040;-87
2022/02/08 06:34:20;;;;;;;19.05;10.20;;;8.60;96.60;;;;;;5018824;28;20045;-86
2022/02/08 06:36:52;;;;;;;17.63;9.45;;;8.60;96.50;;;;;;5002956;28;20049;-87
2022/02/08 06:39:20;;;;;;;16.80;9.38;;;8.60;96.60;;;;;;5019249;28;20111;-87
2022/02/08 06:41:54;;;;;;;21.45;10.32;;;8.60;96.60;;;;;;5004901;28;20489;-87
2022/02/08 06:44:21;;;;;;;15.95;8.48;;;8.50;96.60;;;;;;5003285;28;20052;-87
2022/02/08 06:46:54;;;;;;;16.48;9.30;;;8.60;96.60;;;;;;5006327;28;20033;-87
2022/02/08 06:49:21;;;;;;;;;;;8.50;96.60;;;;;;5007172;28;20051;-87
2022/02/08 06:51:48;;;;;;;14.48;7.85;;;8.50;96.60;;;;;;5038750;28;19920;-87
2022/02/08 06:54:17;;;;;;;20.05;10.57;;;8.50;96.60;;;;;;5006240;28;20098;-87
2022/02/08 06:56:45;;;;;;;18.58;9.98;;;8.50;96.70;;;;;;5005564;28;20057;-87
2022/02/08 06:59:16;;;;;;;17.25;9.80;;;8.50;96.70;;;;;;5022216;28;20073;-87
2022/02/08 07:01:46;;;;;;;16.35;8.95;;;8.50;96.70;;;;;;5023091;28;20079;-87
2022/02/08 07:04:17;;;;;;;14.18;7.93;;;8.50;96.60;;;;;;5005792;28;20073;-86
2022/02/08 07:06:46;;;;;;;13.65;7.80;;;8.50;96.60;;;;;;5006654;28;20037;-87
2022/02/08 07:09:14;;;;;;;15.45;7.85;;;8.50;96.60;;;;;;5021652;28;20041;-86
2022/02/08 07:11:48;;;;;;;18.85;8.60;;;8.50;96.60;;;;;;5021768;28;20045;-88
2022/02/08 07:14:15;;;;;;;14.70;8.65;;;8.50;96.60;;;;;;5006005;28;20037;-89
2022/02/08 07:16:45;;;;;;;13.75;7.93;;;8.50;96.60;;;;;;5006040;28;20041;-89
2022/02/08 07:19:12;;;;;;;15.63;8.02;;;8.40;96.60;;;;;;5006680;28;20049;-88
2022/02/08 07:21:39;;;;;;;16.83;8.57;;;8.40;96.60;;;;;;5021457;28;20065;-81
2022/02/08 07:24:06;;;;;;;12.95;7.05;;;8.40;96.70;;;;;;5005662;28;20075;-80
2022/02/08 07:26:33;;;;;;;14.98;8.82;;;8.50;96.70;;;;;;5037144;28;20048;-82
2022/02/08 07:29:00;;;;;;;12.82;7.22;;;8.50;96.70;;;;;;5021230;28;20045;-81
2022/02/08 07:31:36;;;;;;;14.40;6.93;;;8.60;96.70;;;;;;5037278;28;20076;-84
2022/02/08 07:34:19;;;;;;;12.95;6.75;;;8.60;96.60;;;;;;5007491;28;20477;-86
2022/02/08 07:36:55;;;;;;;;;;;8.60;96.60;;;;;;5021468;28;20485;-80
2022/02/08 07:39:48;;;;;;;12.88;7.13;;;8.70;96.60;;;;;;5037792;28;19971;-80
2022/02/08 07:42:15;;;;;;;13.60;7.50;;;8.70;96.60;;;;;;5011663;28;20057;-81
2022/02/08 07:44:46;;;;;;;12.25;6.07;;;8.70;96.50;;;;;;5021242;28;20052;-81
2022/02/08 07:47:20;;;;;;;12.57;5.80;;;8.70;96.50;;;;;;5022070;28;20052;-80
2022/02/08 07:49:47;;;;;;;10.15;5.18;;;8.80;96.50;;;;;;5015526;28;20045;-81
2022/02/08 07:52:14;;;;;;;9.98;4.82;;;8.80;96.40;;;;;;5034902;28;20037;-81
2022/02/08 07:54:42;;;;;;;11.70;6.10;;;8.80;96.40;;;;;;5031785;28;20052;-81
2022/02/08 07:57:09;;;;;;;12.40;5.25;;;8.80;96.40;;;;;;5032283;28;20053;-80
2022/02/08 07:59:36;;;;;;;13.10;5.15;;;8.90;96.40;;;;;;5049580;28;20051;-81
2022/02/08 08:02:03;;;;;;;12.80;5.63;;;8.90;96.40;;;;;;5012977;28;20048;-81
2022/02/08 08:04:30;;;;;;;10.48;4.18;;;8.90;96.30;;;;;;5025346;28;20056;-88
2022/02/08 08:06:57;;;;;;;11.60;4.82;;;8.90;96.30;;;;;;5021961;28;20102;-87
2022/02/08 08:09:25;;;;;;;13.35;4.38;;;8.90;96.30;;;;;;5021902;28;20087;-89
2022/02/08 08:11:53;;;;;;;11.98;3.67;;;9.00;96.20;;;;;;5020829;28;20059;-84
2022/02/08 08:14:23;;;;;;;12.00;3.05;;;9.00;96.20;;;;;;5005020;28;20430;-87
2022/02/08 08:16:59;;;;;;;6.88;2.65;;;9.10;96.20;;;;;;5021727;28;20053;-86
2022/02/08 08:19:37;;;;;;;12.98;2.58;;;9.10;96.10;;;;;;5022261;28;20139;-86
2022/02/08 08:22:08;;;;;;;8.73;2.65;;;9.10;96.10;;;;;;5008422;28;20068;-86
2022/02/08 08:24:35;;;;;;;6.78;2.10;;;9.20;96.00;;;;;;5037241;28;20067;-86
2022/02/08 08:27:04;;;;;;;7.45;1.90;;;9.20;96.00;;;;;;5005239;28;20037;-86
2022/02/08 08:29:31;;;;;;;6.05;2.08;;;9.20;95.90;;;;;;5021218;28;20052;-86
2022/02/08 08:31:58;;;;;;;9.98;1.92;;;9.30;95.80;;;;;;5004445;28;20055;-85
2022/02/08 08:34:27;;;;;;;5.35;1.52;;;9.30;95.80;;;;;;5021046;28;20052;-85
2022/02/08 08:36:57;;;;;;;7.20;1.65;;;9.30;95.70;;;;;;5004729;28;20091;-85
2022/02/08 08:39:50;;;;;;;5.30;1.10;;;9.40;95.70;;;;;;5009484;28;20041;-87
2022/02/08 08:50:30;;;;;;;5.15;1.30;;;9.50;95.50;;;;;;5036379;28;20103;-86
2022/02/08 08:52:58;;;;;;;5.38;1.48;;;9.60;95.40;;;;;;5036455;28;20064;-85
2022/02/08 08:55:25;;;;;;;7.40;1.05;;;9.70;95.40;;;;;;5015816;28;20038;-86
2022/02/08 08:57:54;;;;;;;7.40;1.38;;;9.70;95.20;;;;;;4983787;28;20099;-85
2022/02/08 09:00:28;;;;;;;8.60;1.88;;;9.70;95.10;;;;;;4999935;28;20045;-93
2022/02/08 09:02:56;;;;;;;5.20;1.00;;;9.80;95.10;;;;;;5000683;28;20038;-88
2022/02/08 09:05:23;;;;;;;6.60;0.90;;;9.80;95.00;;;;;;4984310;28;20045;-90
2022/02/08 09:07:51;;;;;;;6.82;1.00;;;9.90;94.90;;;;;;4983132;28;20434;-90
2022/02/08 09:10:23;;;;;;;6.38;1.10;;;9.90;94.80;;;;;;5000397;28;20073;-90
2022/02/08 09:13:03;;;;;;;4.95;1.20;;;10.00;95.00;;;;;;4984210;28;20038;-88
2022/02/08 09:21:26;;;;;;;10.15;1.13;;;10.10;94.30;;;;;;5017146;28;20136;-89
2022/02/08 09:29:37;;;;;;;4.30;0.80;;;10.20;94.00;;;;;;5035099;28;19960;-83
2022/02/08 09:33:06;;;;;;;3.65;0.55;;;10.30;94.00;;;;;;5021736;28;20065;-83
2022/02/08 09:35:01;;;;;;;5.60;0.88;;;10.30;93.90;;;;;;5036091;28;20057;-82
2022/02/08 09:37:28;;;;;;;5.72;1.15;;;10.40;93.70;;;;;;5019037;28;20405;-83
2022/02/08 09:39:55;;;;;;;5.60;0.98;;;10.40;93.60;;;;;;5002704;28;20833;-84
2022/02/08 09:42:22;;;;;;;6.07;1.08;;;10.50;93.60;;;;;;5019355;28;20045;-83
2022/02/08 09:44:50;;;;;;;3.20;0.75;;;10.50;93.50;;;;;;5002631;28;20123;-82
2022/02/08 09:47:20;;;;;;;8.80;1.42;;;10.50;93.50;;;;;;5035020;28;20076;-83
2022/02/08 09:49:54;;;;;;;4.80;0.90;;;10.60;93.40;;;;;;5003088;28;20049;-83
2022/02/08 09:52:27;;;;;;;3.63;0.70;;;10.70;93.40;;;;;;5005791;28;20056;-84
2022/02/08 09:54:54;;;;;;;6.30;0.60;;;10.70;93.30;;;;;;5018690;28;20060;-83
2022/02/08 09:57:21;;;;;;;5.85;1.15;;;10.80;93.20;;;;;;5018417;28;20064;-83
2022/02/08 09:59:50;;;;;;;8.63;1.10;;;10.80;92.90;;;;;;5034986;28;20086;-86
2022/02/08 10:02:23;;;;;;;6.90;1.05;;;10.90;92.80;;;;;;5018907;28;20049;-86
2022/02/08 10:05:01;;;;;;;8.13;1.10;;;10.90;92.80;;;;;;5019019;28;20065;-87
2022/02/08 10:07:33;;;;;;;4.47;0.63;;;10.90;92.60;;;;;;5035095;28;20041;-87
2022/02/08 10:10:05;;;;;;;3.85;0.80;;;11.00;92.50;;;;;;5019668;28;20045;-89
2022/02/08 10:13:00;;;;;;;4.15;0.75;;;11.00;92.50;;;;;;5036009;28;20045;-89
2022/02/08 10:23:37;;;;;;;5.35;1.30;;;11.10;92.20;;;;;;5035294;28;20128;-88
2022/02/08 10:26:31;;;;;;;6.65;0.82;;;11.10;92.20;;;;;;5018988;28;20041;-88
2022/02/08 10:29:38;;;;;;;7.68;1.23;;;11.20;92.10;;;;;;5019231;28;20466;-87
2022/02/08 10:37:50;;;;;;;4.10;0.70;;;11.10;92.00;;;;;;5035339;28;20059;-88
2022/02/08 10:40:24;;;;;;;4.35;0.50;;;11.10;92.00;;;;;;5035381;28;20045;-88
2022/02/08 10:42:55;;;;;;;2.63;0.60;;;11.10;92.00;;;;;;5035177;28;20055;-88
2022/02/08 10:45:37;;;;;;;3.80;0.70;;;11.10;92.00;;;;;;5035434;28;20501;-88
2022/02/08 10:48:21;;;;;;;1.83;0.88;;;11.10;91.90;;;;;;5018752;28;20049;-89
2022/02/08 10:50:57;;;;;;;3.28;0.63;;;11.10;92.00;;;;;;5018926;28;20071;-89
2022/02/08 10:53:28;;;;;;;6.43;0.80;;;11.10;91.90;;;;;;5035712;28;20507;-89
2022/02/08 10:56:02;;;;;;;6.57;0.90;;;11.10;92.00;;;;;;5035685;28;20045;-89
2022/02/08 10:58:53;;;;;;;5.60;0.93;;;11.10;91.90;;;;;;5035479;28;20076;-88
2022/02/08 11:01:24;;;;;;;1.75;0.50;;;11.10;91.70;;;;;;5022121;28;20041;-88
2022/02/08 11:04:00;;;;;;;3.35;0.82;;;11.10;91.70;;;;;;5003995;28;20045;-89
2022/02/08 11:06:33;;;;;;;3.00;0.50;;;11.20;91.70;;;;;;5007595;28;20086;-90
2022/02/08 11:12:21;;;;;;;5.82;0.60;;;11.20;91.50;;;;;;5024666;28;20041;-88
2022/02/08 11:15:08;;;;;;;3.43;0.70;;;11.30;91.60;;;;;;5021092;28;20068;-88
2022/02/08 11:20:29;;;;;;;5.45;0.70;;;11.30;91.30;;;;;;5035740;28;20053;-89
2022/02/08 11:23:33;;;;;;;5.22;0.95;;;11.40;91.40;;;;;;5034766;28;20049;-89
2022/02/08 11:26:03;;;;;;;;;;;11.40;91.30;;;;;;5035473;28;20095;-88
2022/02/08 11:28:44;;;;;;;4.53;0.85;;;11.40;91.30;;;;;;5034436;28;19990;-87
2022/02/08 11:50:39;;;;;;;6.95;1.48;;;11.60;90.40;;;;;;5022612;28;20049;-89
2022/02/08 12:04:39;;;;;;;3.58;0.45;;;11.70;89.70;;;;;;5037932;28;20068;-88
2022/02/08 12:07:17;;;;;;;3.90;0.75;;;11.70;90.00;;;;;;5037725;28;20045;-88
2022/02/08 12:10:07;;;;;;;5.40;0.65;;;11.80;90.10;;;;;;5022039;28;20044;-87
2022/02/08 12:48:48;;;;;;;3.03;0.38;;;12.10;88.70;;;;;;5036030;28;20049;-85
2022/02/08 12:57:09;;;;;;;2.53;0.40;;;12.10;88.50;;;;;;5022023;28;20049;-84
2022/02/08 12:59:59;;;;;;;3.85;0.50;;;12.20;87.90;;;;;;5036132;28;20041;-83
2022/02/08 14:01:40;;;;;;;1.50;0.30;;;11.70;86.50;;;;;;5013845;28;20051;-85
2022/02/08 14:13:05;;;;;;;3.25;0.40;;;11.80;86.80;;;;;;5015501;28;20045;-80
2022/02/08 14:18:14;;;;;;;2.35;0.50;;;11.90;86.60;;;;;;5028272;28;20421;-79
2022/02/08 14:23:52;;;;;;;1.33;0.40;;;12.10;86.80;;;;;;5007989;28;20065;-78
2022/02/08 15:00:08;;;;;;;3.22;0.98;;;11.90;86.80;;;;;;5010364;28;20494;-79
2022/02/08 15:07:59;;;;;;;5.55;1.13;;;11.80;86.60;;;;;;4996332;28;20064;-84
2022/02/08 15:11:06;;;;;;;1.92;0.30;;;11.80;86.90;;;;;;5029045;28;20132;-83
2022/02/08 15:13:25;;;;;;;3.97;0.57;;;11.80;86.80;;;;;;5010134;28;20057;-77
2022/02/08 15:16:21;;;;;;;1.75;0.38;;;11.80;86.80;;;;;;4986813;28;20168;-80
2022/02/08 15:18:48;;;;;;;3.47;0.50;;;11.80;86.80;;;;;;5027985;28;20050;-79
2022/02/08 15:21:21;;;;;;;4.10;0.57;;;11.70;86.60;;;;;;5011437;28;20111;-79
2022/02/08 15:23:49;;;;;;;1.13;0.30;;;11.70;86.70;;;;;;5011246;28;20045;-78
2022/02/08 15:26:42;;;;;;;5.53;0.50;;;11.70;86.60;;;;;;5014578;28;20076;-83
2022/02/08 15:29:12;;;;;;;1.95;0.40;;;11.60;86.20;;;;;;5005035;28;20413;-81
2022/02/08 15:31:39;;;;;;;3.30;0.50;;;11.60;86.60;;;;;;5030141;28;20114;-77
2022/02/08 15:34:07;;;;;;;1.75;0.40;;;11.60;86.90;;;;;;4998456;28;20045;-79
2022/02/08 15:36:36;;;;;;;4.78;0.38;;;11.60;87.00;;;;;;4998737;28;20084;-79
2022/02/08 15:39:08;;;;;;;2.85;0.30;;;11.60;86.70;;;;;;5012406;28;20428;-79
2022/02/08 15:41:39;;;;;;;2.53;0.40;;;11.60;86.60;;;;;;5030273;28;20061;-83
2022/02/08 15:44:14;;;;;;;3.30;0.40;;;11.60;86.60;;;;;;5030040;28;20041;-78
2022/02/08 15:46:46;;;;;;;4.30;0.40;;;11.50;86.20;;;;;;5028477;28;20280;-79
2022/02/08 15:49:14;;;;;;;3.40;0.50;;;11.50;86.20;;;;;;5028795;28;20033;-82
2022/02/08 15:51:55;;;;;;;4.18;0.82;;;11.50;86.00;;;;;;5014547;28;20045;-80
2022/02/08 15:54:33;;;;;;;2.85;0.52;;;11.50;86.00;;;;;;5016373;28;20044;-88
2022/02/08 16:08:35;;;;;;;2.88;0.40;;;11.40;86.60;;;;;;5002422;28;20401;-86
2022/02/08 16:14:25;;;;;;;2.70;0.38;;;11.40;86.50;;;;;;5045459;28;20047;-80
2022/02/08 16:56:52;;;;;;;5.15;0.55;;;11.20;88.10;;;;;;5016867;28;20042;-88
2022/02/08 16:59:33;;;;;;;1.30;0.28;;;11.10;88.00;;;;;;5007576;28;20056;-91
2022/02/08 17:02:04;;;;;;;2.00;0.45;;;11.10;88.10;;;;;;5017082;28;20061;-88
2022/02/08 17:04:32;;;;;;;3.15;0.40;;;11.10;88.10;;;;;;5020912;28;20103;-87
2022/02/08 17:06:59;;;;;;;5.63;0.70;;;11.10;88.00;;;;;;5020048;28;20050;-88
2022/02/08 17:09:44;;;;;;;2.92;0.50;;;11.10;88.00;;;;;;5016675;28;20410;-85
2022/02/08 17:12:27;;;;;;;2.88;0.50;;;11.10;88.10;;;;;;5004657;28;20117;-89
2022/02/08 17:47:59;;;;;;;3.30;0.85;;;11.00;88.50;;;;;;5002383;28;20049;-85
2022/02/08 17:50:27;;;;;;;4.10;1.00;;;11.00;88.60;;;;;;5015645;28;20104;-83
2022/02/08 17:52:55;;;;;;;5.45;1.02;;;11.00;88.50;;;;;;5031783;28;20049;-87
2022/02/08 17:55:23;;;;;;;5.03;0.93;;;11.00;88.40;;;;;;4999396;28;20057;-86
2022/02/08 17:57:53;;;;;;;4.03;1.15;;;11.00;88.30;;;;;;5015014;28;20041;-84
2022/02/08 18:00:22;;;;;;;2.85;0.75;;;11.00;88.30;;;;;;5019420;28;20131;-85
2022/02/08 18:02:49;;;;;;;2.75;0.50;;;11.00;88.30;;;;;;5019122;28;20095;-86
2022/02/08 18:05:17;;;;;;;2.88;0.82;;;11.00;88.40;;;;;;5035598;28;20504;-86
2022/02/08 18:07:44;;;;;;;2.70;0.70;;;11.00;88.10;;;;;;5019644;28;20047;-87
2022/02/08 18:10:13;;;;;;;2.33;0.70;;;11.00;88.30;;;;;;5035479;28;20037;-86
2022/02/08 18:12:43;;;;;;;1.73;0.93;;;11.00;88.10;;;;;;5019940;28;20110;-85
2022/02/08 18:15:14;;;;;;;4.70;0.70;;;11.00;88.10;;;;;;5022815;28;20049;-85
2022/02/08 18:17:51;;;;;;;5.28;0.80;;;11.00;88.30;;;;;;5037468;28;20116;-88
2022/02/08 18:20:30;;;;;;;3.80;0.88;;;10.90;88.20;;;;;;5036249;28;20037;-85
2022/02/08 18:28:20;;;;;;;5.22;0.85;;;10.90;88.20;;;;;;5034747;28;20489;-85
2022/02/08 19:06:09;;;;;;;4.10;1.35;;;10.50;89.40;;;;;;5039875;28;20045;-85
2022/02/08 19:07:49;;;;;;;5.10;1.48;;;10.50;89.50;;;;;;5042125;28;20053;-86
2022/02/08 19:13:51;;;;;;;3.95;1.48;;;10.50;89.70;;;;;;5014728;28;20045;-83
2022/02/08 19:22:12;;;;;;;4.57;1.95;;;10.50;90.00;;;;;;5024011;28;20061;-89
2022/02/08 19:24:39;;;;;;;4.38;1.67;;;10.50;90.00;;;;;;5039204;28;20497;-88
2022/02/08 19:27:10;;;;;;;8.32;2.45;;;10.40;90.00;;;;;;5022313;28;20049;-86
2022/02/08 19:29:38;;;;;;;3.15;1.40;;;10.40;90.00;;;;;;5038260;28;20032;-90
2022/02/08 19:32:09;;;;;;;3.45;1.65;;;10.40;90.10;;;;;;5012094;28;20045;-87
2022/02/08 19:34:40;;;;;;;5.13;2.17;;;10.40;90.20;;;;;;5038757;28;20073;-87
2022/02/08 19:37:11;;;;;;;5.28;2.33;;;10.30;90.20;;;;;;5037710;28;20045;-83
2022/02/08 19:39:41;;;;;;;7.18;2.50;;;10.30;90.20;;;;;;5021231;28;20140;-83
2022/02/08 19:42:10;;;;;;;4.68;2.20;;;10.30;90.20;;;;;;5021033;28;20139;-81
2022/02/08 19:44:39;;;;;;;8.15;2.38;;;10.40;90.20;;;;;;5021558;28;20040;-84
2022/02/08 19:47:07;;;;;;;5.22;2.38;;;10.40;90.20;;;;;;5020875;28;20454;-81
2022/02/08 19:49:35;;;;;;;3.15;2.08;;;10.40;90.20;;;;;;5005420;28;20045;-82
2022/02/08 19:52:04;;;;;;;4.43;1.85;;;10.40;90.20;;;;;;5036975;28;20044;-82
2022/02/08 19:54:46;;;;;;;6.13;2.15;;;10.40;90.20;;;;;;5055172;28;20099;-81
2022/02/08 19:57:24;;;;;;;5.97;2.10;;;10.50;90.20;;;;;;5022168;28;20091;-85
2022/02/08 19:59:52;;;;;;;3.28;1.88;;;10.40;90.20;;;;;;5023159;28;20049;-89
2022/02/08 20:02:23;;;;;;;3.92;2.10;;;10.50;90.20;;;;;;5005104;28;20053;-89
2022/02/08 20:04:53;;;;;;;3.33;1.95;;;10.50;90.20;;;;;;5021116;28;20049;-86
2022/02/08 20:07:20;;;;;;;3.75;2.38;;;10.50;90.20;;;;;;5021586;28;20154;-87
2022/02/08 20:09:47;;;;;;;5.72;2.55;;;10.50;90.20;;;;;;5021022;28;20493;-86
2022/02/08 20:12:29;;;;;;;5.20;2.08;;;10.50;90.20;;;;;;5022897;28;20041;-87
2022/02/08 20:15:07;;;;;;;6.00;2.63;;;10.50;90.20;;;;;;5006007;28;20944;-85
2022/02/08 20:17:39;;;;;;;6.80;3.00;;;10.50;90.20;;;;;;5037551;28;20040;-85
2022/02/08 20:20:14;;;;;;;4.72;2.42;;;10.50;90.50;;;;;;5036911;28;20049;-85
2022/02/08 20:22:57;;;;;;;4.57;2.67;;;10.50;90.20;;;;;;5021338;28;20040;-86
2022/02/08 20:25:26;;;;;;;4.10;1.70;;;10.50;90.20;;;;;;5005831;28;20070;-86
2022/02/08 20:28:02;;;;;;;3.55;1.98;;;10.50;90.30;;;;;;5037139;28;20068;-90
2022/02/08 20:30:32;;;;;;;4.60;2.70;;;10.50;90.30;;;;;;5037383;28;20056;-90
2022/02/08 20:33:00;;;;;;;5.20;2.30;;;10.50;90.30;;;;;;5021809;28;20041;-90
2022/02/08 20:35:28;;;;;;;3.95;2.17;;;10.50;90.30;;;;;;5037045;28;20051;-87
2022/02/08 20:37:55;;;;;;;5.05;2.63;;;10.50;90.40;;;;;;5020732;28;20048;-88
2022/02/08 20:40:22;;;;;;;4.95;2.63;;;10.50;90.40;;;;;;5021471;28;20049;-90
2022/02/08 20:42:54;;;;;;;6.65;3.08;;;10.40;90.30;;;;;;5021308;28;20065;-90
2022/02/08 20:45:21;;;;;;;6.88;2.80;;;10.50;90.60;;;;;;5021140;28;20056;-87
2022/02/08 20:47:49;;;;;;;7.70;3.10;;;10.50;90.30;;;;;;5020210;28;20094;-87
2022/02/08 20:50:24;;;;;;;4.97;2.65;;;10.40;90.30;;;;;;5019856;28;20098;-86
2022/02/08 20:52:59;;;;;;;7.18;3.60;;;10.40;90.30;;;;;;5005053;28;20072;-85
2022/02/08 20:55:38;;;;;;;6.27;3.77;;;10.40;90.30;;;;;;5019658;28;20040;-83
2022/02/08 20:58:25;;;;;;;4.47;2.78;;;10.40;90.20;;;;;;5035981;28;20691;-83
2022/02/08 21:01:03;;;;;;;8.73;3.80;;;10.40;90.20;;;;;;5019384;28;20053;-84
2022/02/08 21:03:45;;;;;;;6.43;3.70;;;10.40;90.30;;;;;;5020987;28;20057;-84
2022/02/08 21:06:19;;;;;;;5.40;2.70;;;10.40;90.30;;;;;;5035999;28;20071;-84
2022/02/08 21:08:46;;;;;;;6.13;2.92;;;10.30;90.40;;;;;;5020328;28;20069;-85
2022/02/08 21:11:15;;;;;;;5.13;2.58;;;10.30;90.60;;;;;;5003251;28;20374;-84
2022/02/08 21:14:04;;;;;;;3.78;1.90;;;10.30;90.40;;;;;;5022198;28;20398;-84
2022/02/08 21:16:44;;;;;;;6.07;3.40;;;10.30;90.40;;;;;;5037728;28;20082;-84